sensor_id;sensor_type;location;lat;lon;timestamp;P1;durP1;ratioP1;P2;durP2;ratioP2
2299;SDS011;1158;48.750;9.078;2022-07-04T00:01:14;4.80;;;2.97;;
2299;SDS011;1158;48.750;9.078;2022-07-04T00:03:41;7.93;;;3.07;;
2299;SDS011;1158;48.750;9.078;2022-07-04T00:06:08;4.40;;;2.20;;
2299;SDS011;1158;48.750;9.078;2022-07-04T00:08:34;4.83;;;2.60;;
2299;SDS011;1158;48.750;9.078;2022-07-04T00:11:01;9.17;;;2.70;;
2299;SDS011;1158;48.750;9.078;2022-07-04T00:13:29;3.07;;;2.67;;
2299;SDS011;1158;48.750;9.078;2022-07-04T00:15:56;4.40;;;2.60;;
2299;SDS011;1158;48.750;9.078;2022-07-04T00:18:23;9.30;;;2.93;;
2299;SDS011;1158;48.750;9.078;2022-07-04T00:20:49;4.40;;;2.50;;
2299;SDS011;1158;48.750;9.078;2022-07-04T00:23:18;7.30;;;2.93;;
2299;SDS011;1158;48.750;9.078;2022-07-04T00:25:44;4.67;;;2.80;;
2299;SDS011;1158;48.750;9.078;2022-07-04T00:28:11;5.83;;;3.00;;
2299;SDS011;1158;48.750;9.078;2022-07-04T00:30:39;3.90;;;2.40;;
2299;SDS011;1158;48.750;9.078;2022-07-04T00:33:10;9.30;;;2.83;;
2299;SDS011;1158;48.750;9.078;2022-07-04T00:35:37;10.97;;;2.93;;
2299;SDS011;1158;48.750;9.078;2022-07-04T00:38:04;5.53;;;2.97;;
2299;SDS011;1158;48.750;9.078;2022-07-04T00:40:31;5.80;;;2.57;;
2299;SDS011;1158;48.750;9.078;2022-07-04T00:42:59;5.00;;;2.73;;
2299;SDS011;1158;48.750;9.078;2022-07-04T00:45:26;3.97;;;2.80;;
2299;SDS011;1158;48.750;9.078;2022-07-04T00:47:54;4.53;;;2.33;;
2299;SDS011;1158;48.750;9.078;2022-07-04T00:50:21;4.80;;;2.37;;
2299;SDS011;1158;48.750;9.078;2022-07-04T00:52:48;7.67;;;2.50;;
2299;SDS011;1158;48.750;9.078;2022-07-04T00:55:15;5.40;;;2.47;;
2299;SDS011;1158;48.750;9.078;2022-07-04T00:57:43;3.57;;;2.37;;
2299;SDS011;1158;48.750;9.078;2022-07-04T01:00:10;4.80;;;2.90;;
2299;SDS011;1158;48.750;9.078;2022-07-04T01:02:37;4.83;;;2.30;;
2299;SDS011;1158;48.750;9.078;2022-07-04T01:05:05;2.63;;;2.37;;
2299;SDS011;1158;48.750;9.078;2022-07-04T01:07:33;5.40;;;2.87;;
2299;SDS011;1158;48.750;9.078;2022-07-04T01:09:59;5.73;;;2.73;;
2299;SDS011;1158;48.750;9.078;2022-07-04T01:12:28;8.30;;;2.67;;
2299;SDS011;1158;48.750;9.078;2022-07-04T01:14:55;4.53;;;2.60;;
2299;SDS011;1158;48.750;9.078;2022-07-04T01:17:22;8.67;;;2.67;;
2299;SDS011;1158;48.750;9.078;2022-07-04T01:19:49;3.40;;;2.33;;
2299;SDS011;1158;48.750;9.078;2022-07-04T01:22:17;2.83;;;2.40;;
2299;SDS011;1158;48.750;9.078;2022-07-04T01:24:45;3.60;;;2.20;;
2299;SDS011;1158;48.750;9.078;2022-07-04T01:27:12;4.40;;;2.33;;
2299;SDS011;1158;48.750;9.078;2022-07-04T01:29:38;4.37;;;2.10;;
2299;SDS011;1158;48.750;9.078;2022-07-04T01:32:06;3.43;;;2.37;;
2299;SDS011;1158;48.750;9.078;2022-07-04T01:34:33;5.70;;;2.80;;
2299;SDS011;1158;48.750;9.078;2022-07-04T01:37:00;4.07;;;2.43;;
2299;SDS011;1158;48.750;9.078;2022-07-04T01:39:29;4.03;;;2.47;;
2299;SDS011;1158;48.750;9.078;2022-07-04T01:41:56;4.23;;;2.70;;
2299;SDS011;1158;48.750;9.078;2022-07-04T01:44:22;4.07;;;2.50;;
2299;SDS011;1158;48.750;9.078;2022-07-04T01:46:49;4.00;;;2.57;;
2299;SDS011;1158;48.750;9.078;2022-07-04T01:49:16;3.90;;;2.50;;
2299;SDS011;1158;48.750;9.078;2022-07-04T01:51:45;4.70;;;2.63;;
2299;SDS011;1158;48.750;9.078;2022-07-04T01:54:12;10.73;;;2.90;;
2299;SDS011;1158;48.750;9.078;2022-07-04T01:56:41;5.27;;;2.70;;
2299;SDS011;1158;48.750;9.078;2022-07-04T01:59:07;4.37;;;3.10;;
2299;SDS011;1158;48.750;9.078;2022-07-04T02:01:34;8.70;;;2.93;;
2299;SDS011;1158;48.750;9.078;2022-07-04T02:04:02;6.87;;;2.83;;
2299;SDS011;1158;48.750;9.078;2022-07-04T02:06:31;5.33;;;2.73;;
2299;SDS011;1158;48.750;9.078;2022-07-04T02:08:58;8.53;;;3.33;;
2299;SDS011;1158;48.750;9.078;2022-07-04T02:11:46;3.70;;;2.70;;
2299;SDS011;1158;48.750;9.078;2022-07-04T02:14:31;9.20;;;2.73;;
2299;SDS011;1158;48.750;9.078;2022-07-04T02:16:58;3.40;;;2.53;;
2299;SDS011;1158;48.750;9.078;2022-07-04T02:19:26;6.23;;;2.60;;
2299;SDS011;1158;48.750;9.078;2022-07-04T02:21:53;11.27;;;3.27;;
2299;SDS011;1158;48.750;9.078;2022-07-04T02:24:19;3.90;;;2.73;;
2299;SDS011;1158;48.750;9.078;2022-07-04T02:26:47;4.50;;;2.97;;
2299;SDS011;1158;48.750;9.078;2022-07-04T02:29:14;5.27;;;2.57;;
2299;SDS011;1158;48.750;9.078;2022-07-04T02:31:41;4.40;;;3.00;;
2299;SDS011;1158;48.750;9.078;2022-07-04T02:34:08;5.00;;;2.80;;
2299;SDS011;1158;48.750;9.078;2022-07-04T02:36:35;3.47;;;2.87;;
2299;SDS011;1158;48.750;9.078;2022-07-04T02:39:02;5.33;;;3.10;;
2299;SDS011;1158;48.750;9.078;2022-07-04T02:41:29;5.00;;;2.97;;
2299;SDS011;1158;48.750;9.078;2022-07-04T02:43:57;4.70;;;2.70;;
2299;SDS011;1158;48.750;9.078;2022-07-04T02:46:25;7.80;;;3.00;;
2299;SDS011;1158;48.750;9.078;2022-07-04T02:48:51;8.73;;;3.80;;
2299;SDS011;1158;48.750;9.078;2022-07-04T02:51:18;10.10;;;3.53;;
2299;SDS011;1158;48.750;9.078;2022-07-04T02:53:45;5.17;;;3.10;;
2299;SDS011;1158;48.750;9.078;2022-07-04T02:56:12;5.93;;;2.70;;
2299;SDS011;1158;48.750;9.078;2022-07-04T02:58:39;8.10;;;3.57;;
2299;SDS011;1158;48.750;9.078;2022-07-04T03:01:07;4.80;;;3.03;;
2299;SDS011;1158;48.750;9.078;2022-07-04T03:03:34;5.47;;;3.60;;
2299;SDS011;1158;48.750;9.078;2022-07-04T03:06:00;4.60;;;3.10;;
2299;SDS011;1158;48.750;9.078;2022-07-04T03:08:27;6.30;;;2.90;;
2299;SDS011;1158;48.750;9.078;2022-07-04T03:10:54;8.87;;;3.70;;
2299;SDS011;1158;48.750;9.078;2022-07-04T03:13:21;6.40;;;3.67;;
2299;SDS011;1158;48.750;9.078;2022-07-04T03:15:47;5.83;;;3.83;;
2299;SDS011;1158;48.750;9.078;2022-07-04T03:18:15;3.33;;;3.03;;
2299;SDS011;1158;48.750;9.078;2022-07-04T03:20:42;14.10;;;3.37;;
2299;SDS011;1158;48.750;9.078;2022-07-04T03:23:09;5.10;;;3.40;;
2299;SDS011;1158;48.750;9.078;2022-07-04T03:25:36;5.33;;;2.87;;
2299;SDS011;1158;48.750;9.078;2022-07-04T03:28:03;5.93;;;3.40;;
2299;SDS011;1158;48.750;9.078;2022-07-04T03:30:30;7.80;;;3.20;;
2299;SDS011;1158;48.750;9.078;2022-07-04T03:32:56;6.00;;;3.47;;
2299;SDS011;1158;48.750;9.078;2022-07-04T03:35:25;5.00;;;3.17;;
2299;SDS011;1158;48.750;9.078;2022-07-04T03:37:52;6.17;;;3.13;;
2299;SDS011;1158;48.750;9.078;2022-07-04T03:40:19;4.53;;;3.20;;
2299;SDS011;1158;48.750;9.078;2022-07-04T03:42:46;6.83;;;3.67;;
2299;SDS011;1158;48.750;9.078;2022-07-04T03:45:13;4.33;;;3.30;;
2299;SDS011;1158;48.750;9.078;2022-07-04T03:47:40;7.33;;;3.50;;
2299;SDS011;1158;48.750;9.078;2022-07-04T03:50:07;7.07;;;3.70;;
2299;SDS011;1158;48.750;9.078;2022-07-04T03:52:36;4.27;;;3.10;;
2299;SDS011;1158;48.750;9.078;2022-07-04T03:55:02;5.90;;;3.03;;
2299;SDS011;1158;48.750;9.078;2022-07-04T03:57:29;7.33;;;3.40;;
2299;SDS011;1158;48.750;9.078;2022-07-04T03:59:56;8.10;;;3.50;;
2299;SDS011;1158;48.750;9.078;2022-07-04T04:02:23;4.40;;;3.60;;
2299;SDS011;1158;48.750;9.078;2022-07-04T04:04:50;7.00;;;3.30;;
2299;SDS011;1158;48.750;9.078;2022-07-04T04:07:35;6.20;;;3.70;;
2299;SDS011;1158;48.750;9.078;2022-07-04T04:10:02;5.50;;;3.30;;
2299;SDS011;1158;48.750;9.078;2022-07-04T04:12:29;5.83;;;3.33;;
2299;SDS011;1158;48.750;9.078;2022-07-04T04:14:56;9.50;;;3.73;;
2299;SDS011;1158;48.750;9.078;2022-07-04T04:17:22;6.07;;;3.83;;
2299;SDS011;1158;48.750;9.078;2022-07-04T04:19:49;3.50;;;3.03;;
2299;SDS011;1158;48.750;9.078;2022-07-04T04:22:16;5.80;;;4.03;;
2299;SDS011;1158;48.750;9.078;2022-07-04T04:24:44;7.77;;;3.40;;
2299;SDS011;1158;48.750;9.078;2022-07-04T04:27:10;8.83;;;3.50;;
2299;SDS011;1158;48.750;9.078;2022-07-04T04:29:37;5.00;;;3.30;;
2299;SDS011;1158;48.750;9.078;2022-07-04T04:32:04;6.73;;;3.67;;
2299;SDS011;1158;48.750;9.078;2022-07-04T04:34:31;6.00;;;3.37;;
2299;SDS011;1158;48.750;9.078;2022-07-04T04:36:59;5.90;;;3.33;;
2299;SDS011;1158;48.750;9.078;2022-07-04T04:39:25;8.43;;;3.80;;
2299;SDS011;1158;48.750;9.078;2022-07-04T04:41:53;5.83;;;3.47;;
2299;SDS011;1158;48.750;9.078;2022-07-04T04:44:20;5.43;;;3.90;;
2299;SDS011;1158;48.750;9.078;2022-07-04T04:46:47;5.60;;;3.37;;
2299;SDS011;1158;48.750;9.078;2022-07-04T04:49:14;4.00;;;2.83;;
2299;SDS011;1158;48.750;9.078;2022-07-04T04:51:42;8.13;;;3.00;;
2299;SDS011;1158;48.750;9.078;2022-07-04T04:54:08;4.60;;;3.07;;
2299;SDS011;1158;48.750;9.078;2022-07-04T04:56:35;5.77;;;3.60;;
2299;SDS011;1158;48.750;9.078;2022-07-04T04:59:03;6.33;;;3.20;;
2299;SDS011;1158;48.750;9.078;2022-07-04T05:01:30;4.80;;;3.40;;
2299;SDS011;1158;48.750;9.078;2022-07-04T05:03:56;3.30;;;2.77;;
2299;SDS011;1158;48.750;9.078;2022-07-04T05:06:23;5.43;;;2.60;;
2299;SDS011;1158;48.750;9.078;2022-07-04T05:08:50;4.27;;;3.20;;
2299;SDS011;1158;48.750;9.078;2022-07-04T05:11:16;5.33;;;3.23;;
2299;SDS011;1158;48.750;9.078;2022-07-04T05:13:43;5.17;;;3.10;;
2299;SDS011;1158;48.750;9.078;2022-07-04T05:16:12;5.77;;;3.30;;
2299;SDS011;1158;48.750;9.078;2022-07-04T05:18:38;6.07;;;2.90;;
2299;SDS011;1158;48.750;9.078;2022-07-04T05:21:05;6.83;;;2.90;;
2299;SDS011;1158;48.750;9.078;2022-07-04T05:23:32;6.80;;;3.47;;
2299;SDS011;1158;48.750;9.078;2022-07-04T05:25:58;4.20;;;2.93;;
2299;SDS011;1158;48.750;9.078;2022-07-04T05:28:25;4.97;;;3.40;;
2299;SDS011;1158;48.750;9.078;2022-07-04T05:30:52;3.10;;;2.60;;
2299;SDS011;1158;48.750;9.078;2022-07-04T05:33:20;6.00;;;3.47;;
2299;SDS011;1158;48.750;9.078;2022-07-04T05:35:46;4.30;;;2.90;;
2299;SDS011;1158;48.750;9.078;2022-07-04T05:38:13;5.60;;;3.17;;
2299;SDS011;1158;48.750;9.078;2022-07-04T05:40:40;4.50;;;2.83;;
2299;SDS011;1158;48.750;9.078;2022-07-04T05:43:06;5.23;;;2.93;;
2299;SDS011;1158;48.750;9.078;2022-07-04T05:45:33;4.80;;;3.23;;
2299;SDS011;1158;48.750;9.078;2022-07-04T05:48:00;6.80;;;2.80;;
2299;SDS011;1158;48.750;9.078;2022-07-04T05:50:28;5.37;;;2.60;;
2299;SDS011;1158;48.750;9.078;2022-07-04T05:52:54;5.90;;;2.70;;
2299;SDS011;1158;48.750;9.078;2022-07-04T05:55:21;9.80;;;2.50;;
2299;SDS011;1158;48.750;9.078;2022-07-04T05:57:48;7.90;;;2.90;;
2299;SDS011;1158;48.750;9.078;2022-07-04T06:00:14;3.80;;;2.70;;
2299;SDS011;1158;48.750;9.078;2022-07-04T06:02:41;8.87;;;2.53;;
2299;SDS011;1158;48.750;9.078;2022-07-04T06:05:08;4.30;;;2.60;;
2299;SDS011;1158;48.750;9.078;2022-07-04T06:07:36;4.17;;;2.90;;
2299;SDS011;1158;48.750;9.078;2022-07-04T06:10:03;4.27;;;2.50;;
2299;SDS011;1158;48.750;9.078;2022-07-04T06:12:30;3.83;;;3.20;;
2299;SDS011;1158;48.750;9.078;2022-07-04T06:14:57;10.23;;;2.87;;
2299;SDS011;1158;48.750;9.078;2022-07-04T06:17:24;7.13;;;2.70;;
2299;SDS011;1158;48.750;9.078;2022-07-04T06:19:51;3.70;;;2.60;;
2299;SDS011;1158;48.750;9.078;2022-07-04T06:22:17;4.90;;;2.60;;
2299;SDS011;1158;48.750;9.078;2022-07-04T06:24:45;5.13;;;2.60;;
2299;SDS011;1158;48.750;9.078;2022-07-04T06:27:12;6.60;;;2.90;;
2299;SDS011;1158;48.750;9.078;2022-07-04T06:29:38;3.80;;;2.70;;
2299;SDS011;1158;48.750;9.078;2022-07-04T06:32:06;4.27;;;2.87;;
2299;SDS011;1158;48.750;9.078;2022-07-04T06:34:33;5.00;;;2.17;;
2299;SDS011;1158;48.750;9.078;2022-07-04T06:37:17;3.70;;;2.00;;
2299;SDS011;1158;48.750;9.078;2022-07-04T06:39:45;4.67;;;1.93;;
2299;SDS011;1158;48.750;9.078;2022-07-04T06:42:12;5.53;;;2.20;;
2299;SDS011;1158;48.750;9.078;2022-07-04T06:44:39;9.20;;;2.37;;
2299;SDS011;1158;48.750;9.078;2022-07-04T06:47:05;5.10;;;1.90;;
2299;SDS011;1158;48.750;9.078;2022-07-04T06:49:33;3.17;;;2.20;;
2299;SDS011;1158;48.750;9.078;2022-07-04T06:51:59;6.10;;;2.83;;
2299;SDS011;1158;48.750;9.078;2022-07-04T06:54:26;4.97;;;2.27;;
2299;SDS011;1158;48.750;9.078;2022-07-04T06:56:54;4.30;;;2.13;;
2299;SDS011;1158;48.750;9.078;2022-07-04T06:59:21;3.70;;;1.90;;
2299;SDS011;1158;48.750;9.078;2022-07-04T07:01:47;4.87;;;2.10;;
2299;SDS011;1158;48.750;9.078;2022-07-04T07:04:14;5.00;;;2.97;;
2299;SDS011;1158;48.750;9.078;2022-07-04T07:06:40;6.43;;;2.37;;
2299;SDS011;1158;48.750;9.078;2022-07-04T07:09:07;5.13;;;2.23;;
2299;SDS011;1158;48.750;9.078;2022-07-04T07:11:34;4.73;;;2.40;;
2299;SDS011;1158;48.750;9.078;2022-07-04T07:14:02;3.13;;;2.50;;
2299;SDS011;1158;48.750;9.078;2022-07-04T07:16:28;5.97;;;2.80;;
2299;SDS011;1158;48.750;9.078;2022-07-04T07:18:55;4.27;;;2.63;;
2299;SDS011;1158;48.750;9.078;2022-07-04T07:21:22;4.90;;;3.13;;
2299;SDS011;1158;48.750;9.078;2022-07-04T07:23:48;6.27;;;2.60;;
2299;SDS011;1158;48.750;9.078;2022-07-04T07:26:15;5.00;;;2.10;;
2299;SDS011;1158;48.750;9.078;2022-07-04T07:28:42;6.17;;;2.10;;
2299;SDS011;1158;48.750;9.078;2022-07-04T07:31:10;5.97;;;2.80;;
2299;SDS011;1158;48.750;9.078;2022-07-04T07:33:37;8.70;;;3.23;;
2299;SDS011;1158;48.750;9.078;2022-07-04T07:36:04;4.90;;;2.20;;
2299;SDS011;1158;48.750;9.078;2022-07-04T07:38:31;10.63;;;2.30;;
2299;SDS011;1158;48.750;9.078;2022-07-04T07:40:57;5.10;;;2.70;;
2299;SDS011;1158;48.750;9.078;2022-07-04T07:43:24;3.70;;;2.40;;
2299;SDS011;1158;48.750;9.078;2022-07-04T07:45:51;5.80;;;2.40;;
2299;SDS011;1158;48.750;9.078;2022-07-04T07:48:19;4.13;;;2.00;;
2299;SDS011;1158;48.750;9.078;2022-07-04T07:50:46;4.50;;;2.57;;
2299;SDS011;1158;48.750;9.078;2022-07-04T07:53:13;5.40;;;2.37;;
2299;SDS011;1158;48.750;9.078;2022-07-04T07:55:40;5.20;;;2.57;;
2299;SDS011;1158;48.750;9.078;2022-07-04T07:58:07;4.03;;;2.30;;
2299;SDS011;1158;48.750;9.078;2022-07-04T08:00:34;6.00;;;2.50;;
2299;SDS011;1158;48.750;9.078;2022-07-04T08:03:00;4.17;;;2.83;;
2299;SDS011;1158;48.750;9.078;2022-07-04T08:05:46;5.90;;;2.37;;
2299;SDS011;1158;48.750;9.078;2022-07-04T08:08:13;8.50;;;2.83;;
2299;SDS011;1158;48.750;9.078;2022-07-04T08:10:39;6.90;;;3.13;;
2299;SDS011;1158;48.750;9.078;2022-07-04T08:13:06;8.57;;;2.63;;
2299;SDS011;1158;48.750;9.078;2022-07-04T08:15:33;5.77;;;2.50;;
2299;SDS011;1158;48.750;9.078;2022-07-04T08:18:00;2.83;;;2.10;;
2299;SDS011;1158;48.750;9.078;2022-07-04T08:20:27;4.83;;;2.23;;
2299;SDS011;1158;48.750;9.078;2022-07-04T08:22:55;5.07;;;2.40;;
2299;SDS011;1158;48.750;9.078;2022-07-04T08:25:22;5.63;;;2.60;;
2299;SDS011;1158;48.750;9.078;2022-07-04T08:27:48;6.20;;;2.73;;
2299;SDS011;1158;48.750;9.078;2022-07-04T08:30:15;4.07;;;2.43;;
2299;SDS011;1158;48.750;9.078;2022-07-04T08:32:42;5.57;;;2.67;;
2299;SDS011;1158;48.750;9.078;2022-07-04T08:35:09;5.07;;;2.30;;
2299;SDS011;1158;48.750;9.078;2022-07-04T08:37:35;4.90;;;2.53;;
2299;SDS011;1158;48.750;9.078;2022-07-04T08:40:04;5.07;;;2.70;;
2299;SDS011;1158;48.750;9.078;2022-07-04T08:42:34;3.80;;;2.70;;
2299;SDS011;1158;48.750;9.078;2022-07-04T08:45:02;4.93;;;2.70;;
2299;SDS011;1158;48.750;9.078;2022-07-04T08:47:31;4.50;;;2.63;;
2299;SDS011;1158;48.750;9.078;2022-07-04T08:50:02;6.57;;;2.80;;
2299;SDS011;1158;48.750;9.078;2022-07-04T08:52:35;14.20;;;3.03;;
2299;SDS011;1158;48.750;9.078;2022-07-04T08:55:05;9.40;;;2.37;;
2299;SDS011;1158;48.750;9.078;2022-07-04T08:57:50;10.07;;;2.73;;
2299;SDS011;1158;48.750;9.078;2022-07-04T09:00:35;5.97;;;2.67;;
2299;SDS011;1158;48.750;9.078;2022-07-04T09:03:03;5.20;;;2.20;;
2299;SDS011;1158;48.750;9.078;2022-07-04T09:05:30;3.40;;;2.33;;
2299;SDS011;1158;48.750;9.078;2022-07-04T09:07:58;6.40;;;2.60;;
2299;SDS011;1158;48.750;9.078;2022-07-04T09:10:26;4.57;;;2.80;;
2299;SDS011;1158;48.750;9.078;2022-07-04T09:12:54;4.67;;;2.13;;
2299;SDS011;1158;48.750;9.078;2022-07-04T09:15:20;14.20;;;2.97;;
2299;SDS011;1158;48.750;9.078;2022-07-04T09:17:47;8.63;;;2.83;;
2299;SDS011;1158;48.750;9.078;2022-07-04T09:20:15;11.70;;;3.17;;
2299;SDS011;1158;48.750;9.078;2022-07-04T09:22:43;9.50;;;3.00;;
2299;SDS011;1158;48.750;9.078;2022-07-04T09:25:10;4.50;;;2.47;;
2299;SDS011;1158;48.750;9.078;2022-07-04T09:27:41;6.73;;;2.00;;
2299;SDS011;1158;48.750;9.078;2022-07-04T09:30:10;5.60;;;2.77;;
2299;SDS011;1158;48.750;9.078;2022-07-04T09:32:39;4.30;;;2.30;;
2299;SDS011;1158;48.750;9.078;2022-07-04T09:35:08;3.57;;;2.60;;
2299;SDS011;1158;48.750;9.078;2022-07-04T09:37:37;4.60;;;2.43;;
2299;SDS011;1158;48.750;9.078;2022-07-04T09:40:05;5.80;;;2.43;;
2299;SDS011;1158;48.750;9.078;2022-07-04T09:42:38;7.57;;;2.40;;
2299;SDS011;1158;48.750;9.078;2022-07-04T09:45:07;4.93;;;2.30;;
2299;SDS011;1158;48.750;9.078;2022-07-04T09:47:36;4.60;;;2.53;;
2299;SDS011;1158;48.750;9.078;2022-07-04T09:50:05;5.50;;;2.40;;
2299;SDS011;1158;48.750;9.078;2022-07-04T09:52:43;8.63;;;2.40;;
2299;SDS011;1158;48.750;9.078;2022-07-04T09:55:11;3.97;;;2.20;;
2299;SDS011;1158;48.750;9.078;2022-07-04T09:57:44;4.63;;;2.20;;
2299;SDS011;1158;48.750;9.078;2022-07-04T10:00:15;7.73;;;2.27;;
2299;SDS011;1158;48.750;9.078;2022-07-04T10:02:43;4.00;;;2.00;;
2299;SDS011;1158;48.750;9.078;2022-07-04T10:05:10;5.80;;;2.47;;
2299;SDS011;1158;48.750;9.078;2022-07-04T10:07:38;3.23;;;1.70;;
2299;SDS011;1158;48.750;9.078;2022-07-04T10:10:21;7.60;;;2.40;;
2299;SDS011;1158;48.750;9.078;2022-07-04T10:12:51;3.67;;;1.83;;
2299;SDS011;1158;48.750;9.078;2022-07-04T10:15:19;5.80;;;2.17;;
2299;SDS011;1158;48.750;9.078;2022-07-04T10:17:46;7.17;;;2.33;;
2299;SDS011;1158;48.750;9.078;2022-07-04T10:20:14;2.50;;;2.00;;
2299;SDS011;1158;48.750;9.078;2022-07-04T10:22:41;3.97;;;1.97;;
2299;SDS011;1158;48.750;9.078;2022-07-04T10:25:09;6.33;;;2.03;;
2299;SDS011;1158;48.750;9.078;2022-07-04T10:27:36;4.97;;;2.20;;
2299;SDS011;1158;48.750;9.078;2022-07-04T10:30:05;2.73;;;2.03;;
2299;SDS011;1158;48.750;9.078;2022-07-04T10:32:35;8.10;;;2.03;;
2299;SDS011;1158;48.750;9.078;2022-07-04T10:35:05;3.50;;;2.03;;
2299;SDS011;1158;48.750;9.078;2022-07-04T10:40:44;3.90;;;2.10;;
2299;SDS011;1158;48.750;9.078;2022-07-04T10:46:45;5.70;;;1.87;;
2299;SDS011;1158;48.750;9.078;2022-07-04T10:49:17;4.83;;;2.10;;
2299;SDS011;1158;48.750;9.078;2022-07-04T10:51:54;2.87;;;1.80;;
2299;SDS011;1158;48.750;9.078;2022-07-04T10:54:30;4.20;;;1.90;;
2299;SDS011;1158;48.750;9.078;2022-07-04T10:56:59;3.23;;;2.13;;
2299;SDS011;1158;48.750;9.078;2022-07-04T10:59:37;4.27;;;2.00;;
2299;SDS011;1158;48.750;9.078;2022-07-04T11:02:22;4.17;;;1.90;;
2299;SDS011;1158;48.750;9.078;2022-07-04T11:04:51;2.90;;;1.70;;
2299;SDS011;1158;48.750;9.078;2022-07-04T11:07:20;4.03;;;2.30;;
2299;SDS011;1158;48.750;9.078;2022-07-04T11:13:04;5.23;;;2.50;;
2299;SDS011;1158;48.750;9.078;2022-07-04T11:18:40;4.03;;;1.97;;
2299;SDS011;1158;48.750;9.078;2022-07-04T11:21:17;2.60;;;1.50;;
2299;SDS011;1158;48.750;9.078;2022-07-04T11:23:52;3.00;;;1.93;;
2299;SDS011;1158;48.750;9.078;2022-07-04T11:26:20;3.90;;;1.67;;
2299;SDS011;1158;48.750;9.078;2022-07-04T11:28:48;3.60;;;1.73;;
2299;SDS011;1158;48.750;9.078;2022-07-04T11:31:15;3.10;;;1.90;;
2299;SDS011;1158;48.750;9.078;2022-07-04T11:33:43;6.83;;;2.43;;
2299;SDS011;1158;48.750;9.078;2022-07-04T11:36:11;7.00;;;2.07;;
2299;SDS011;1158;48.750;9.078;2022-07-04T11:38:44;5.13;;;1.90;;
2299;SDS011;1158;48.750;9.078;2022-07-04T11:41:19;4.30;;;2.03;;
2299;SDS011;1158;48.750;9.078;2022-07-04T11:44:06;5.37;;;2.30;;
2299;SDS011;1158;48.750;9.078;2022-07-04T11:47:00;5.17;;;1.83;;
2299;SDS011;1158;48.750;9.078;2022-07-04T11:49:32;9.73;;;1.90;;
2299;SDS011;1158;48.750;9.078;2022-07-04T11:51:59;5.70;;;1.80;;
2299;SDS011;1158;48.750;9.078;2022-07-04T11:54:26;3.93;;;1.97;;
2299;SDS011;1158;48.750;9.078;2022-07-04T11:57:05;2.70;;;1.87;;
2299;SDS011;1158;48.750;9.078;2022-07-04T11:59:34;6.20;;;1.80;;
2299;SDS011;1158;48.750;9.078;2022-07-04T12:02:11;5.60;;;1.93;;
2299;SDS011;1158;48.750;9.078;2022-07-04T12:04:40;6.73;;;2.40;;
2299;SDS011;1158;48.750;9.078;2022-07-04T12:07:08;3.37;;;1.93;;
2299;SDS011;1158;48.750;9.078;2022-07-04T12:09:36;5.40;;;1.70;;
2299;SDS011;1158;48.750;9.078;2022-07-04T12:12:03;5.73;;;1.67;;
2299;SDS011;1158;48.750;9.078;2022-07-04T12:14:30;5.33;;;2.00;;
2299;SDS011;1158;48.750;9.078;2022-07-04T12:17:13;7.10;;;1.90;;
2299;SDS011;1158;48.750;9.078;2022-07-04T12:19:52;3.70;;;1.70;;
2299;SDS011;1158;48.750;9.078;2022-07-04T12:22:27;5.80;;;2.17;;
2299;SDS011;1158;48.750;9.078;2022-07-04T12:24:55;2.80;;;2.07;;
2299;SDS011;1158;48.750;9.078;2022-07-04T12:27:23;3.80;;;1.93;;
2299;SDS011;1158;48.750;9.078;2022-07-04T12:29:51;4.60;;;1.70;;
2299;SDS011;1158;48.750;9.078;2022-07-04T12:32:19;3.10;;;1.73;;
2299;SDS011;1158;48.750;9.078;2022-07-04T12:34:46;6.60;;;2.10;;
2299;SDS011;1158;48.750;9.078;2022-07-04T12:37:14;3.37;;;1.90;;
2299;SDS011;1158;48.750;9.078;2022-07-04T12:39:43;3.27;;;1.83;;
2299;SDS011;1158;48.750;9.078;2022-07-04T12:42:11;3.40;;;1.80;;
2299;SDS011;1158;48.750;9.078;2022-07-04T12:44:39;3.47;;;1.90;;
2299;SDS011;1158;48.750;9.078;2022-07-04T12:47:07;2.80;;;1.77;;
2299;SDS011;1158;48.750;9.078;2022-07-04T12:49:35;2.93;;;2.10;;
2299;SDS011;1158;48.750;9.078;2022-07-04T12:52:05;4.27;;;2.07;;
2299;SDS011;1158;48.750;9.078;2022-07-04T12:54:35;2.90;;;1.60;;
2299;SDS011;1158;48.750;9.078;2022-07-04T12:57:07;2.93;;;1.90;;
2299;SDS011;1158;48.750;9.078;2022-07-04T12:59:36;2.70;;;1.60;;
2299;SDS011;1158;48.750;9.078;2022-07-04T13:02:03;3.10;;;1.80;;
2299;SDS011;1158;48.750;9.078;2022-07-04T13:04:31;3.97;;;1.80;;
2299;SDS011;1158;48.750;9.078;2022-07-04T13:06:59;3.60;;;1.70;;
2299;SDS011;1158;48.750;9.078;2022-07-04T13:09:38;3.03;;;1.80;;
2299;SDS011;1158;48.750;9.078;2022-07-04T13:12:05;3.23;;;1.97;;
2299;SDS011;1158;48.750;9.078;2022-07-04T13:14:51;3.10;;;1.63;;
2299;SDS011;1158;48.750;9.078;2022-07-04T13:17:18;4.00;;;1.80;;
2299;SDS011;1158;48.750;9.078;2022-07-04T13:19:45;5.27;;;2.23;;
2299;SDS011;1158;48.750;9.078;2022-07-04T13:22:12;3.40;;;1.70;;
2299;SDS011;1158;48.750;9.078;2022-07-04T13:24:40;2.90;;;1.97;;
2299;SDS011;1158;48.750;9.078;2022-07-04T13:27:07;6.30;;;1.80;;
2299;SDS011;1158;48.750;9.078;2022-07-04T13:29:33;3.93;;;2.00;;
2299;SDS011;1158;48.750;9.078;2022-07-04T13:32:00;4.67;;;2.20;;
2299;SDS011;1158;48.750;9.078;2022-07-04T13:34:28;7.87;;;2.10;;
2299;SDS011;1158;48.750;9.078;2022-07-04T13:36:55;6.00;;;2.80;;
2299;SDS011;1158;48.750;9.078;2022-07-04T13:39:22;5.93;;;2.30;;
2299;SDS011;1158;48.750;9.078;2022-07-04T13:41:50;7.50;;;2.33;;
2299;SDS011;1158;48.750;9.078;2022-07-04T13:44:16;4.50;;;2.20;;
2299;SDS011;1158;48.750;9.078;2022-07-04T13:46:43;3.73;;;2.37;;
2299;SDS011;1158;48.750;9.078;2022-07-04T13:49:10;3.57;;;2.17;;
2299;SDS011;1158;48.750;9.078;2022-07-04T13:51:37;4.50;;;2.60;;
2299;SDS011;1158;48.750;9.078;2022-07-04T13:54:04;4.00;;;1.90;;
2299;SDS011;1158;48.750;9.078;2022-07-04T13:56:31;3.60;;;1.90;;
2299;SDS011;1158;48.750;9.078;2022-07-04T13:59:00;3.10;;;1.80;;
2299;SDS011;1158;48.750;9.078;2022-07-04T14:01:27;3.60;;;1.80;;
2299;SDS011;1158;48.750;9.078;2022-07-04T14:03:54;5.50;;;2.07;;
2299;SDS011;1158;48.750;9.078;2022-07-04T14:06:20;4.97;;;1.63;;
2299;SDS011;1158;48.750;9.078;2022-07-04T14:08:47;3.30;;;1.77;;
2299;SDS011;1158;48.750;9.078;2022-07-04T14:11:14;4.63;;;2.40;;
2299;SDS011;1158;48.750;9.078;2022-07-04T14:13:41;4.73;;;2.00;;
2299;SDS011;1158;48.750;9.078;2022-07-04T14:16:09;4.33;;;2.10;;
2299;SDS011;1158;48.750;9.078;2022-07-04T14:18:35;11.23;;;2.17;;
2299;SDS011;1158;48.750;9.078;2022-07-04T14:21:02;4.00;;;2.40;;
2299;SDS011;1158;48.750;9.078;2022-07-04T14:23:29;7.23;;;2.00;;
2299;SDS011;1158;48.750;9.078;2022-07-04T14:26:10;4.33;;;2.03;;
2299;SDS011;1158;48.750;9.078;2022-07-04T14:28:38;4.20;;;2.20;;
2299;SDS011;1158;48.750;9.078;2022-07-04T14:31:05;5.93;;;2.30;;
2299;SDS011;1158;48.750;9.078;2022-07-04T14:33:33;4.20;;;2.00;;
2299;SDS011;1158;48.750;9.078;2022-07-04T14:36:00;4.37;;;2.20;;
2299;SDS011;1158;48.750;9.078;2022-07-04T14:38:27;5.37;;;2.40;;
2299;SDS011;1158;48.750;9.078;2022-07-04T14:40:55;7.13;;;2.10;;
2299;SDS011;1158;48.750;9.078;2022-07-04T14:43:34;5.90;;;2.23;;
2299;SDS011;1158;48.750;9.078;2022-07-04T14:46:02;4.10;;;2.10;;
2299;SDS011;1158;48.750;9.078;2022-07-04T14:48:28;5.70;;;2.00;;
2299;SDS011;1158;48.750;9.078;2022-07-04T14:50:57;5.13;;;2.20;;
2299;SDS011;1158;48.750;9.078;2022-07-04T14:53:24;5.57;;;1.90;;
2299;SDS011;1158;48.750;9.078;2022-07-04T14:55:51;3.77;;;2.00;;
2299;SDS011;1158;48.750;9.078;2022-07-04T14:58:18;3.90;;;1.97;;
2299;SDS011;1158;48.750;9.078;2022-07-04T15:00:45;6.77;;;1.73;;
2299;SDS011;1158;48.750;9.078;2022-07-04T15:03:11;4.03;;;1.80;;
2299;SDS011;1158;48.750;9.078;2022-07-04T15:05:38;5.67;;;2.50;;
2299;SDS011;1158;48.750;9.078;2022-07-04T15:08:06;5.10;;;2.20;;
2299;SDS011;1158;48.750;9.078;2022-07-04T15:10:34;4.03;;;2.30;;
2299;SDS011;1158;48.750;9.078;2022-07-04T15:13:00;4.27;;;2.10;;
2299;SDS011;1158;48.750;9.078;2022-07-04T15:15:27;2.63;;;1.90;;
2299;SDS011;1158;48.750;9.078;2022-07-04T15:17:54;5.23;;;2.13;;
2299;SDS011;1158;48.750;9.078;2022-07-04T15:20:20;6.67;;;2.47;;
2299;SDS011;1158;48.750;9.078;2022-07-04T15:23:06;5.27;;;2.37;;
2299;SDS011;1158;48.750;9.078;2022-07-04T15:25:50;2.87;;;1.90;;
2299;SDS011;1158;48.750;9.078;2022-07-04T15:28:17;3.50;;;2.10;;
2299;SDS011;1158;48.750;9.078;2022-07-04T15:30:43;6.60;;;2.30;;
2299;SDS011;1158;48.750;9.078;2022-07-04T15:33:10;3.20;;;1.93;;
2299;SDS011;1158;48.750;9.078;2022-07-04T15:35:39;6.17;;;2.00;;